createdAt,value
2017-05-05T00:00:51.988Z,100732
2017-05-05T00:01:52.004Z,100731
2017-05-05T00:02:52.948Z,100734
2017-05-05T00:03:52.213Z,100729
2017-05-05T00:04:52.311Z,100731
2017-05-05T00:05:52.933Z,100733
2017-05-05T00:06:52.931Z,100724
2017-05-05T00:07:52.972Z,100732
2017-05-05T00:08:52.779Z,100731
2017-05-05T00:09:52.506Z,100734
2017-05-05T00:10:53.156Z,100733
2017-05-05T00:11:52.646Z,100730
2017-05-05T00:12:53.212Z,100731
2017-05-05T00:13:52.685Z,100732
2017-05-05T00:14:53.076Z,100731
2017-05-05T00:15:53.322Z,100729
2017-05-05T00:16:53.337Z,100730
2017-05-05T00:17:52.874Z,100733
2017-05-05T00:18:53.511Z,100730
2017-05-05T00:19:53.548Z,100733
2017-05-05T00:20:53.309Z,100730
2017-05-05T00:21:53.140Z,100730
2017-05-05T00:22:53.234Z,100721
2017-05-05T00:23:53.343Z,100725
2017-05-05T00:24:54.000Z,100726
2017-05-05T00:25:54.027Z,100721
2017-05-05T00:26:54.407Z,100721
2017-05-05T00:27:53.642Z,100713
2017-05-05T00:28:54.226Z,100720
2017-05-05T00:29:53.715Z,100720
2017-05-05T00:30:53.752Z,100724
2017-05-05T00:31:54.359Z,100724
2017-05-05T00:32:54.742Z,100727
2017-05-05T00:33:54.461Z,100721
2017-05-05T00:34:53.969Z,100720
2017-05-05T00:35:53.957Z,100722
2017-05-05T00:36:54.601Z,100716
2017-05-05T00:37:54.142Z,100721
2017-05-05T00:38:55.045Z,100713
2017-05-05T00:39:54.803Z,100721
2017-05-05T00:40:54.281Z,100709
2017-05-05T00:41:54.905Z,100714
2017-05-05T00:42:54.434Z,100717
2017-05-05T00:43:54.944Z,100709
2017-05-05T00:44:55.239Z,100720
2017-05-05T00:45:54.992Z,100720
2017-05-05T00:46:55.115Z,100716
2017-05-05T00:47:55.161Z,100718
2017-05-05T00:48:55.196Z,100713
2017-05-05T00:49:54.751Z,100715
2017-05-05T00:50:55.040Z,100714
2017-05-05T00:51:55.339Z,100714
2017-05-05T00:52:55.306Z,100719
2017-05-05T00:53:54.828Z,100712
2017-05-05T00:54:55.323Z,100712
2017-05-05T00:55:55.388Z,100714
2017-05-05T00:56:55.107Z,100713
2017-05-05T00:57:55.458Z,100717
2017-05-05T00:58:55.463Z,100707
2017-05-05T00:59:55.013Z,100705
2017-05-05T01:00:55.587Z,100698
2017-05-05T01:01:56.253Z,100706
2017-05-05T01:02:55.940Z,100709
2017-05-05T01:03:55.694Z,100706
2017-05-05T01:04:55.239Z,100702
2017-05-05T01:05:55.770Z,100703
2017-05-05T01:06:55.858Z,100701
2017-05-05T01:07:55.917Z,100701
2017-05-05T01:08:56.203Z,100702
2017-05-05T01:09:56.028Z,100700
2017-05-05T01:10:56.062Z,100702
2017-05-05T01:11:55.562Z,100700
2017-05-05T01:12:56.198Z,100697
2017-05-05T01:13:55.657Z,100703
2017-05-05T01:14:57.384Z,100701
2017-05-05T01:15:56.324Z,100705
2017-05-05T01:16:56.424Z,100707
2017-05-05T01:17:56.459Z,100709
2017-05-05T01:18:55.925Z,100710
2017-05-05T01:19:56.596Z,100708
2017-05-05T01:20:56.892Z,100715
2017-05-05T01:21:56.136Z,100712
2017-05-05T01:22:56.807Z,100710
2017-05-05T01:23:56.353Z,100708
2017-05-05T01:24:56.951Z,100708
2017-05-05T01:25:56.515Z,100707
2017-05-05T01:26:57.355Z,100707
2017-05-05T01:27:57.163Z,100704
2017-05-05T01:28:57.166Z,100703
2017-05-05T01:29:57.224Z,100699
2017-05-05T01:30:57.223Z,100703
2017-05-05T01:31:57.294Z,100702
2017-05-05T01:32:57.607Z,100704
2017-05-05T01:33:56.838Z,100702
2017-05-05T01:34:57.424Z,100698
2017-05-05T01:35:57.426Z,100703
2017-05-05T01:36:56.941Z,100705
2017-05-05T01:37:57.579Z,100700
2017-05-05T01:38:58.000Z,100703
2017-05-05T01:39:57.165Z,100697
2017-05-05T01:40:57.665Z,100703
2017-05-05T01:41:57.176Z,100698
2017-05-05T01:42:57.214Z,100701
2017-05-05T01:43:57.273Z,100699
2017-05-05T01:44:58.164Z,100699
2017-05-05T01:45:57.282Z,100704
2017-05-05T01:46:57.331Z,100699
2017-05-05T01:47:57.393Z,100705
2017-05-05T01:48:57.427Z,100704
2017-05-05T01:49:57.975Z,100700
2017-05-05T01:50:57.823Z,100703
2017-05-05T01:51:57.553Z,100700
2017-05-05T01:52:58.342Z,100702
2017-05-05T01:53:58.253Z,100704
2017-05-05T01:54:58.292Z,100696
2017-05-05T01:55:57.835Z,100701
2017-05-05T01:56:58.680Z,100701
2017-05-05T01:57:57.950Z,100702
2017-05-05T01:58:57.979Z,100697
2017-05-05T01:59:58.542Z,100701
2017-05-05T02:00:58.627Z,100701
2017-05-05T02:01:58.694Z,100699
2017-05-05T02:02:59.033Z,100695
2017-05-05T02:03:58.744Z,100704
2017-05-05T02:04:58.288Z,100700
2017-05-05T02:05:58.334Z,100705
2017-05-05T02:06:58.945Z,100701
2017-05-05T02:07:58.470Z,100706
2017-05-05T02:08:59.335Z,100700
2017-05-05T02:09:59.188Z,100696
2017-05-05T02:10:58.618Z,100704
2017-05-05T02:11:58.705Z,100696
2017-05-05T02:12:59.286Z,100701
2017-05-05T02:13:59.343Z,100699
2017-05-05T02:14:59.153Z,100704
2017-05-05T02:15:58.872Z,100708
2017-05-05T02:16:59.500Z,100709
2017-05-05T02:17:59.553Z,100705
2017-05-05T02:18:59.651Z,100707
2017-05-05T02:19:59.691Z,100704
2017-05-05T02:20:59.467Z,100704
2017-05-05T02:21:59.726Z,100709
2017-05-05T02:22:59.237Z,100707
2017-05-05T02:23:59.833Z,100703
2017-05-05T02:24:59.312Z,100708
2017-05-05T02:25:59.294Z,100711
2017-05-05T02:26:59.685Z,100706
2017-05-05T02:27:59.465Z,100713
2017-05-05T02:28:59.426Z,100715
2017-05-05T02:30:00.086Z,100714
2017-05-05T02:30:59.566Z,100714
2017-05-05T02:31:59.696Z,100714
2017-05-05T02:33:00.019Z,100715
2017-05-05T02:34:00.359Z,100711
2017-05-05T02:35:00.442Z,100714
2017-05-05T02:35:59.991Z,100709
2017-05-05T02:37:00.510Z,100711
2017-05-05T02:38:00.066Z,100711
2017-05-05T02:39:00.857Z,100705
2017-05-05T02:40:00.101Z,100711
2017-05-05T02:41:00.108Z,100714
2017-05-05T02:42:00.069Z,100713
2017-05-05T02:43:00.157Z,100713
2017-05-05T02:44:00.749Z,100712
2017-05-05T02:45:01.102Z,100713
2017-05-05T02:46:00.302Z,100719
2017-05-05T02:47:00.356Z,100712
2017-05-05T02:48:00.444Z,100706
2017-05-05T02:49:01.060Z,100708
2017-05-05T02:50:01.072Z,100710
2017-05-05T02:51:01.444Z,100711
2017-05-05T02:52:00.654Z,100710
2017-05-05T02:53:01.192Z,100710
2017-05-05T02:54:00.634Z,100709
2017-05-05T02:55:00.729Z,100708
2017-05-05T02:56:01.268Z,100703
2017-05-05T02:57:01.012Z,100712
2017-05-05T02:58:01.346Z,100707
2017-05-05T02:59:00.828Z,100706
2017-05-05T03:00:01.454Z,100700
2017-05-05T03:01:01.531Z,100708
2017-05-05T03:02:01.614Z,100704
2017-05-05T03:03:01.877Z,100706
2017-05-05T03:04:01.688Z,100705
2017-05-05T03:05:01.131Z,100708
2017-05-05T03:06:01.181Z,100701
2017-05-05T03:07:01.160Z,100707
2017-05-05T03:08:01.241Z,100708
2017-05-05T03:09:01.543Z,100704
2017-05-05T03:10:01.839Z,100710
2017-05-05T03:11:01.874Z,100709
2017-05-05T03:12:01.953Z,100707
2017-05-05T03:13:01.465Z,100713
2017-05-05T03:14:02.057Z,100709
2017-05-05T03:15:02.405Z,100707
2017-05-05T03:16:01.600Z,100710
2017-05-05T03:17:02.231Z,100708
2017-05-05T03:18:01.711Z,100699
2017-05-05T03:19:02.336Z,100707
2017-05-05T03:20:02.347Z,100706
2017-05-05T03:21:02.148Z,100699
2017-05-05T03:22:01.957Z,100705
2017-05-05T03:23:02.434Z,100705
2017-05-05T03:24:01.995Z,100700
2017-05-05T03:25:02.629Z,100707
2017-05-05T03:26:02.684Z,100706
2017-05-05T03:27:02.974Z,100703
2017-05-05T03:28:02.808Z,100705
2017-05-05T03:29:02.868Z,100698
2017-05-05T03:30:02.825Z,100706
2017-05-05T03:31:02.317Z,100706
2017-05-05T03:32:02.985Z,100694
2017-05-05T03:33:03.254Z,100700
2017-05-05T03:34:02.950Z,100701
2017-05-05T03:35:02.965Z,100694
2017-05-05T03:36:02.438Z,100703
2017-05-05T03:37:02.584Z,100703
2017-05-05T03:38:03.093Z,100703
2017-05-05T03:39:03.421Z,100706
2017-05-05T03:40:02.611Z,100704
2017-05-05T03:41:03.157Z,100703
2017-05-05T03:42:02.761Z,100699
2017-05-05T03:43:02.731Z,100707
2017-05-05T03:44:02.759Z,100702
2017-05-05T03:45:03.605Z,100701
2017-05-05T03:46:03.310Z,100699
2017-05-05T03:47:03.415Z,100707
2017-05-05T03:48:02.937Z,100708
2017-05-05T03:49:03.010Z,100713
2017-05-05T03:50:02.989Z,100710
2017-05-05T03:51:03.415Z,100709
2017-05-05T03:52:03.729Z,100710
2017-05-05T03:53:03.773Z,100704
2017-05-05T03:54:03.271Z,100711
2017-05-05T03:55:03.871Z,100706
2017-05-05T03:56:03.430Z,100717
2017-05-05T03:57:03.714Z,100716
2017-05-05T03:58:04.093Z,100717
2017-05-05T03:59:03.608Z,100718
2017-05-05T04:00:03.623Z,100713
2017-05-05T04:01:04.217Z,100718
2017-05-05T04:02:03.794Z,100714
2017-05-05T04:03:04.686Z,100712
2017-05-05T04:04:04.445Z,100711
2017-05-05T04:05:04.485Z,100706
2017-05-05T04:06:03.994Z,100710
2017-05-05T04:07:04.611Z,100712
2017-05-05T04:08:04.636Z,100703
2017-05-05T04:09:04.418Z,100713
2017-05-05T04:10:04.641Z,100706
2017-05-05T04:11:04.154Z,100713
2017-05-05T04:12:04.785Z,100709
2017-05-05T04:13:04.253Z,100708
2017-05-05T04:14:04.276Z,100708
2017-05-05T04:15:04.603Z,100712
2017-05-05T04:16:04.350Z,100709
2017-05-05T04:17:04.909Z,100706
2017-05-05T04:18:04.974Z,100706
2017-05-05T04:19:04.512Z,100703
2017-05-05T04:20:05.054Z,100708
2017-05-05T04:21:04.818Z,100709
2017-05-05T04:22:04.601Z,100712
2017-05-05T04:23:05.222Z,100706
2017-05-05T04:24:04.682Z,100703
2017-05-05T04:25:04.845Z,100714
2017-05-05T04:26:05.424Z,100713
2017-05-05T04:27:05.794Z,100717
2017-05-05T04:28:05.513Z,100715
2017-05-05T04:29:06.116Z,100716
2017-05-05T04:30:05.016Z,100710
2017-05-05T04:31:05.079Z,100716
2017-05-05T04:32:05.202Z,100711
2017-05-05T04:33:05.596Z,100715
2017-05-05T04:34:05.852Z,100710
2017-05-05T04:35:05.394Z,100716
2017-05-05T04:36:05.926Z,100718
2017-05-05T04:37:05.900Z,100722
2017-05-05T04:38:05.921Z,100721
2017-05-05T04:39:06.265Z,100719
2017-05-05T04:40:05.525Z,100717
2017-05-05T04:41:05.539Z,100719
2017-05-05T04:42:06.338Z,100720
2017-05-05T04:43:05.651Z,100728
2017-05-05T04:44:06.303Z,100724
2017-05-05T04:45:07.320Z,100724
2017-05-05T04:46:06.489Z,100724
2017-05-05T04:47:06.549Z,100720
2017-05-05T04:48:06.619Z,100725
2017-05-05T04:49:06.178Z,100730
2017-05-05T04:50:06.769Z,100726
2017-05-05T04:51:07.136Z,100733
2017-05-05T04:52:06.329Z,100727
2017-05-05T04:53:06.857Z,100728
2017-05-05T04:54:06.409Z,100729
2017-05-05T04:55:06.354Z,100729
2017-05-05T04:56:06.900Z,100726
2017-05-05T04:57:07.251Z,100729
2017-05-05T04:58:06.435Z,100730
2017-05-05T04:59:07.061Z,100730
2017-05-05T05:00:06.528Z,100736
2017-05-05T05:01:06.635Z,100726
2017-05-05T05:02:06.744Z,100733
2017-05-05T05:03:07.652Z,100738
2017-05-05T05:04:07.764Z,100731
2017-05-05T05:05:07.306Z,100736
2017-05-05T05:06:07.349Z,100733
2017-05-05T05:07:06.919Z,100732
2017-05-05T05:08:07.469Z,100732
2017-05-05T05:09:07.793Z,100736
2017-05-05T05:10:06.981Z,100726
2017-05-05T05:11:07.027Z,100730
2017-05-05T05:12:09.615Z,100735
2017-05-05T05:13:07.696Z,100728
2017-05-05T05:14:07.682Z,100736
2017-05-05T05:15:08.028Z,100737
2017-05-05T05:16:07.715Z,100739
2017-05-05T05:17:07.245Z,100740
2017-05-05T05:18:08.575Z,100738
2017-05-05T05:19:07.288Z,100738
2017-05-05T05:20:08.559Z,100739
2017-05-05T05:21:07.605Z,100739
2017-05-05T05:22:07.946Z,100738
2017-05-05T05:23:08.009Z,100736
2017-05-05T05:24:08.088Z,100743
2017-05-05T05:25:08.073Z,100738
2017-05-05T05:26:08.098Z,100738
2017-05-05T05:27:08.474Z,100739
2017-05-05T05:28:08.208Z,100739
2017-05-05T05:29:08.318Z,100734
2017-05-05T05:30:08.975Z,100745
2017-05-05T05:31:07.831Z,100743
2017-05-05T05:32:07.911Z,100739
2017-05-05T05:33:08.308Z,100750
2017-05-05T05:34:08.066Z,100746
2017-05-05T05:35:08.150Z,100747
2017-05-05T05:36:08.183Z,100750
2017-05-05T05:37:08.174Z,100752
2017-05-05T05:38:08.262Z,100750
2017-05-05T05:39:09.157Z,100744
2017-05-05T05:40:08.348Z,100746
2017-05-05T05:41:09.129Z,100752
2017-05-05T05:42:08.939Z,100754
2017-05-05T05:43:09.027Z,100753
2017-05-05T05:44:09.630Z,100748
2017-05-05T05:45:08.971Z,100752
2017-05-05T05:46:09.143Z,100751
2017-05-05T05:47:08.727Z,100751
2017-05-05T05:48:09.285Z,100751
2017-05-05T05:49:08.790Z,100754
2017-05-05T05:50:09.379Z,100754
2017-05-05T05:51:09.197Z,100754
2017-05-05T05:52:08.857Z,100754
2017-05-05T05:53:11.469Z,100750
2017-05-05T05:54:09.570Z,100758
2017-05-05T05:55:09.626Z,100759
2017-05-05T05:56:09.067Z,100763
2017-05-05T05:57:10.009Z,100764
2017-05-05T05:58:09.275Z,100759
2017-05-05T05:59:09.906Z,100759
2017-05-05T06:00:10.687Z,100762
2017-05-05T06:01:09.513Z,100764
2017-05-05T06:02:09.516Z,100767
2017-05-05T06:03:10.363Z,100764
2017-05-05T06:04:10.178Z,100760
2017-05-05T06:05:10.755Z,100762
2017-05-05T06:06:10.220Z,100765
2017-05-05T06:07:09.734Z,100766
2017-05-05T06:08:10.411Z,100763
2017-05-05T06:09:10.661Z,100765
2017-05-05T06:10:09.853Z,100763
2017-05-05T06:11:09.812Z,100765
2017-05-05T06:12:10.498Z,100754
2017-05-05T06:13:10.581Z,100760
2017-05-05T06:14:10.653Z,100761
2017-05-05T06:15:10.941Z,100761
2017-05-05T06:16:10.810Z,100762
2017-05-05T06:17:11.104Z,100760
2017-05-05T06:18:10.399Z,100758
2017-05-05T06:19:10.955Z,100759
2017-05-05T06:20:11.059Z,100757
2017-05-05T06:21:12.054Z,100759
2017-05-05T06:22:11.930Z,100759
2017-05-05T06:23:11.981Z,100758
2017-05-05T06:24:11.961Z,100765
2017-05-05T06:25:10.830Z,100763
2017-05-05T06:26:10.972Z,100766
2017-05-05T06:27:11.762Z,100770
2017-05-05T06:28:11.604Z,100767
2017-05-05T06:29:12.251Z,100771
2017-05-05T06:30:11.660Z,100765
2017-05-05T06:31:11.158Z,100767
2017-05-05T06:32:14.386Z,100767
2017-05-05T06:33:12.158Z,100768
2017-05-05T06:34:12.032Z,100769
2017-05-05T06:35:11.986Z,100773
2017-05-05T06:36:11.620Z,100771
2017-05-05T06:37:12.229Z,100772
2017-05-05T06:38:12.255Z,100774
2017-05-05T06:39:12.522Z,100776
2017-05-05T06:40:12.989Z,100777
2017-05-05T06:41:13.557Z,100773
2017-05-05T06:42:12.604Z,100776
2017-05-05T06:43:12.967Z,100776
2017-05-05T06:44:13.233Z,100776
2017-05-05T06:45:13.648Z,100782
2017-05-05T06:46:12.604Z,100777
2017-05-05T06:47:13.982Z,100779
2017-05-05T06:48:12.719Z,100780
2017-05-05T06:49:12.726Z,100778
2017-05-05T06:50:12.846Z,100779
2017-05-05T06:51:13.660Z,100773
2017-05-05T06:52:12.391Z,100782
2017-05-05T06:53:12.399Z,100773
2017-05-05T06:54:14.570Z,100774
2017-05-05T06:55:14.283Z,100782
2017-05-05T06:56:13.064Z,100778
2017-05-05T06:57:13.400Z,100781
2017-05-05T06:58:13.653Z,100774
2017-05-05T06:59:13.234Z,100781
2017-05-05T07:00:14.363Z,100783
2017-05-05T07:01:18.847Z,100780
2017-05-05T07:02:13.363Z,100778
2017-05-05T07:03:13.187Z,100778
2017-05-05T07:04:14.248Z,100779
2017-05-05T07:05:13.570Z,100782
2017-05-05T07:06:15.738Z,100779
2017-05-05T07:07:13.063Z,100781
2017-05-05T07:08:13.071Z,100777
2017-05-05T07:09:14.117Z,100784
2017-05-05T07:10:13.683Z,100781
2017-05-05T07:11:15.137Z,100783
2017-05-05T07:12:15.231Z,100783
2017-05-05T07:13:14.016Z,100784
2017-05-05T07:14:15.356Z,100785
2017-05-05T07:15:14.263Z,100776
2017-05-05T07:16:13.540Z,100785
2017-05-05T07:17:16.142Z,100784
2017-05-05T07:18:15.646Z,100781
2017-05-05T07:19:13.620Z,100781
2017-05-05T07:20:14.207Z,100784
2017-05-05T07:21:15.199Z,100785
2017-05-05T07:22:13.787Z,100785
2017-05-05T07:23:16.353Z,100779
2017-05-05T07:24:15.762Z,100777
2017-05-05T07:25:14.405Z,100779
2017-05-05T07:26:15.300Z,100779
2017-05-05T07:27:14.844Z,100783
2017-05-05T07:28:14.674Z,100786
2017-05-05T07:29:14.769Z,100780
2017-05-05T07:30:14.887Z,100790
2017-05-05T07:31:14.843Z,100786
2017-05-05T07:32:17.437Z,100783
2017-05-05T07:33:15.271Z,100784
2017-05-05T07:34:15.039Z,100790
2017-05-05T07:35:15.959Z,100786
2017-05-05T07:36:14.500Z,100788
2017-05-05T07:37:15.729Z,100793
2017-05-05T07:38:16.981Z,100794
2017-05-05T07:39:16.020Z,100793
2017-05-05T07:40:15.558Z,100787
2017-05-05T07:41:15.431Z,100797
2017-05-05T07:42:15.681Z,100798
2017-05-05T07:43:15.357Z,100789
2017-05-05T07:44:14.923Z,100804
2017-05-05T07:45:16.650Z,100800
2017-05-05T07:46:15.556Z,100802
2017-05-05T07:47:15.573Z,100799
2017-05-05T07:48:15.573Z,100801
2017-05-05T07:49:15.839Z,100803
2017-05-05T07:50:15.200Z,100803
2017-05-05T07:51:15.453Z,100799
2017-05-05T07:52:15.309Z,100800
2017-05-05T07:53:16.527Z,100804
2017-05-05T07:54:16.654Z,100794
2017-05-05T07:55:16.246Z,100803
2017-05-05T07:56:16.237Z,100800
2017-05-05T07:57:17.015Z,100798
2017-05-05T07:58:16.609Z,100802
2017-05-05T07:59:16.240Z,100800
2017-05-05T08:00:16.880Z,100797
2017-05-05T08:01:16.633Z,100797
2017-05-05T08:02:16.636Z,100798
2017-05-05T08:03:17.172Z,100799
2017-05-05T08:04:16.090Z,100801
2017-05-05T08:05:16.415Z,100798
2017-05-05T08:06:17.122Z,100798
2017-05-05T08:07:16.524Z,100795
2017-05-05T08:08:16.953Z,100798
2017-05-05T08:09:17.366Z,100798
2017-05-05T08:10:16.737Z,100789
2017-05-05T08:11:16.616Z,100792
2017-05-05T08:12:16.869Z,100797
2017-05-05T08:13:18.004Z,100794
2017-05-05T08:14:16.716Z,100793
2017-05-05T08:15:17.115Z,100795
2017-05-05T08:16:16.312Z,100800
2017-05-05T08:17:16.262Z,100796
2017-05-05T08:18:16.287Z,100801
2017-05-05T08:19:18.217Z,100795
2017-05-05T08:20:16.975Z,100797
2017-05-05T08:21:16.674Z,100796
2017-05-05T08:22:18.970Z,100799
2017-05-05T08:23:17.091Z,100796
2017-05-05T08:24:17.263Z,100796
2017-05-05T08:25:17.232Z,100795
2017-05-05T08:26:17.193Z,100800
2017-05-05T08:27:16.958Z,100800
2017-05-05T08:28:17.391Z,100795
2017-05-05T08:29:19.450Z,100797
2017-05-05T08:30:16.735Z,100799
2017-05-05T08:31:18.528Z,100792
2017-05-05T08:32:16.884Z,100796
2017-05-05T08:33:17.213Z,100799
2017-05-05T08:34:17.543Z,100804
2017-05-05T08:35:17.778Z,100799
2017-05-05T08:36:19.473Z,100807
2017-05-05T08:37:17.140Z,100805
2017-05-05T08:38:17.790Z,100803
2017-05-05T08:39:19.161Z,100804
2017-05-05T08:40:17.313Z,100803
2017-05-05T08:41:17.338Z,100804
2017-05-05T08:42:18.500Z,100795
2017-05-05T08:43:18.095Z,100802
2017-05-05T08:44:19.305Z,100799
2017-05-05T08:45:17.890Z,100799
2017-05-05T08:46:18.861Z,100799
2017-05-05T08:47:18.982Z,100799
2017-05-05T08:48:18.882Z,100799
2017-05-05T08:49:17.691Z,100798
2017-05-05T08:50:18.299Z,100800
2017-05-05T08:51:19.679Z,100797
2017-05-05T08:52:20.635Z,100795
2017-05-05T08:53:17.882Z,100799
2017-05-05T08:54:18.044Z,100800
2017-05-05T08:55:17.951Z,100797
2017-05-05T08:56:19.140Z,100794
2017-05-05T08:57:18.302Z,100802
2017-05-05T08:58:18.635Z,100805
2017-05-05T08:59:18.660Z,100806
2017-05-05T09:00:19.447Z,100808
2017-05-05T09:01:18.239Z,100808
2017-05-05T09:02:19.433Z,100807
2017-05-05T09:03:18.688Z,100809
2017-05-05T09:04:18.388Z,100809
2017-05-05T09:05:19.033Z,100803
2017-05-05T09:06:18.973Z,100806
2017-05-05T09:07:19.601Z,100807
2017-05-05T09:08:19.815Z,100805
2017-05-05T09:09:20.651Z,100805
2017-05-05T09:10:19.995Z,100808
2017-05-05T09:11:18.694Z,100805
2017-05-05T09:12:18.767Z,100808
2017-05-05T09:13:20.080Z,100807
2017-05-05T09:14:19.276Z,100812
2017-05-05T09:15:19.573Z,100813
2017-05-05T09:16:19.031Z,100811
2017-05-05T09:17:19.138Z,100808
2017-05-05T09:18:19.876Z,100805
2017-05-05T09:19:19.179Z,100812
2017-05-05T09:20:19.554Z,100810
2017-05-05T09:21:20.684Z,100811
2017-05-05T09:22:21.878Z,100808
2017-05-05T09:23:20.037Z,100803
2017-05-05T09:24:19.516Z,100804
2017-05-05T09:25:20.017Z,100804
2017-05-05T09:26:19.860Z,100803
2017-05-05T09:27:20.086Z,100802
2017-05-05T09:28:20.108Z,100799
2017-05-05T09:29:21.783Z,100804
2017-05-05T09:30:19.751Z,100803
2017-05-05T09:31:19.848Z,100804
2017-05-05T09:32:20.160Z,100802
2017-05-05T09:33:22.785Z,100800
2017-05-05T09:34:20.610Z,100804
2017-05-05T09:35:20.731Z,100807
2017-05-05T09:36:20.765Z,100807
2017-05-05T09:37:21.408Z,100807
2017-05-05T09:38:20.648Z,100810
2017-05-05T09:39:21.600Z,100807
2017-05-05T09:40:25.204Z,100808
2017-05-05T09:41:20.595Z,100808
2017-05-05T09:42:26.424Z,100808
2017-05-05T09:43:24.584Z,100807
2017-05-05T09:44:26.528Z,100806
2017-05-05T09:45:21.510Z,100801
2017-05-05T09:46:24.120Z,100804
2017-05-05T09:47:21.494Z,100805
2017-05-05T09:48:21.580Z,100803
2017-05-05T09:49:22.760Z,100808
2017-05-05T09:50:22.464Z,100810
2017-05-05T09:51:21.063Z,100803
2017-05-05T09:52:22.947Z,100795
2017-05-05T09:53:22.510Z,100793
2017-05-05T09:54:21.836Z,100796
2017-05-05T09:55:21.374Z,100800
2017-05-05T09:56:21.979Z,100805
2017-05-05T09:57:23.359Z,100804
2017-05-05T09:58:22.135Z,100806
2017-05-05T09:59:22.023Z,100808
2017-05-05T10:00:22.046Z,100808
2017-05-05T10:01:23.420Z,100806
2017-05-05T10:02:22.651Z,100815
2017-05-05T10:03:22.967Z,100807
2017-05-05T10:04:22.399Z,100808
2017-05-05T10:05:22.275Z,100816
2017-05-05T10:06:23.544Z,100816
2017-05-05T10:07:22.435Z,100818
2017-05-05T10:08:22.867Z,100818
2017-05-05T10:09:22.634Z,100818
2017-05-05T10:10:24.080Z,100816
2017-05-05T10:11:24.470Z,100816
2017-05-05T10:12:22.659Z,100820
2017-05-05T10:13:22.540Z,100820
2017-05-05T10:14:23.338Z,100818
2017-05-05T10:15:23.310Z,100823
2017-05-05T10:16:22.776Z,100823
2017-05-05T10:17:23.569Z,100821
2017-05-05T10:18:24.181Z,100824
2017-05-05T10:19:24.119Z,100827
2017-05-05T10:20:23.228Z,100830
2017-05-05T10:21:25.147Z,100827
2017-05-05T10:22:25.136Z,100831
2017-05-05T10:23:24.411Z,100829
2017-05-05T10:24:24.609Z,100834
2017-05-05T10:25:24.309Z,100836
2017-05-05T10:26:27.341Z,100833
2017-05-05T10:27:24.639Z,100832
2017-05-05T10:28:24.220Z,100834
2017-05-05T10:29:28.913Z,100837
2017-05-05T10:30:30.829Z,100828
2017-05-05T10:31:25.761Z,100833
2017-05-05T10:32:24.414Z,100836
2017-05-05T10:33:25.999Z,100831
2017-05-05T10:34:24.328Z,100830
2017-05-05T10:35:25.140Z,100833
2017-05-05T10:36:23.794Z,100836
2017-05-05T10:37:25.628Z,100836
2017-05-05T10:38:26.010Z,100837
2017-05-05T10:39:25.437Z,100837
2017-05-05T10:40:24.198Z,100834
2017-05-05T10:41:24.102Z,100835
2017-05-05T10:42:27.338Z,100833
2017-05-05T10:43:24.682Z,100830
2017-05-05T10:44:24.340Z,100833
2017-05-05T10:45:25.151Z,100832
2017-05-05T10:46:25.769Z,100833
2017-05-05T10:47:27.889Z,100839
2017-05-05T10:48:25.691Z,100841
2017-05-05T10:49:26.079Z,100836
2017-05-05T10:50:26.459Z,100843
2017-05-05T10:51:24.825Z,100834
2017-05-05T10:52:25.569Z,100841
2017-05-05T10:53:26.424Z,100837
2017-05-05T10:54:26.261Z,100844
2017-05-05T10:55:26.404Z,100847
2017-05-05T10:56:25.354Z,100841
2017-05-05T10:57:26.403Z,100844
2017-05-05T10:58:27.035Z,100840
2017-05-05T10:59:27.237Z,100845
2017-05-05T11:00:26.802Z,100844
2017-05-05T11:01:25.977Z,100840
2017-05-05T11:02:24.583Z,100848
2017-05-05T11:03:26.964Z,100843
2017-05-05T11:04:25.280Z,100851
2017-05-05T11:05:26.617Z,100844
2017-05-05T11:06:26.904Z,100849
2017-05-05T11:07:27.931Z,100838
2017-05-05T11:08:27.116Z,100850
2017-05-05T11:09:26.241Z,100845
2017-05-05T11:10:25.556Z,100849
2017-05-05T11:11:25.608Z,100842
2017-05-05T11:12:26.930Z,100840
2017-05-05T11:13:27.985Z,100842
2017-05-05T11:14:25.812Z,100842
2017-05-05T11:15:28.233Z,100840
2017-05-05T11:16:27.269Z,100841
2017-05-05T11:17:26.461Z,100845
2017-05-05T11:18:27.455Z,100847
2017-05-05T11:19:27.132Z,100839
2017-05-05T11:20:25.417Z,100848
2017-05-05T11:21:26.631Z,100848
2017-05-05T11:22:26.016Z,100850
2017-05-05T11:23:25.452Z,100847
2017-05-05T11:24:26.755Z,100854
2017-05-05T11:25:26.685Z,100855
2017-05-05T11:26:27.898Z,100854
2017-05-05T11:27:28.150Z,100846
2017-05-05T11:28:27.075Z,100854
2017-05-05T11:29:26.235Z,100853
2017-05-05T11:30:26.575Z,100853
2017-05-05T11:31:26.341Z,100848
2017-05-05T11:32:25.747Z,100847
2017-05-05T11:33:26.344Z,100852
2017-05-05T11:34:26.975Z,100850
2017-05-05T11:35:26.528Z,100850
2017-05-05T11:36:26.333Z,100846
2017-05-05T11:37:26.634Z,100848
2017-05-05T11:38:26.661Z,100850
2017-05-05T11:39:26.165Z,100841
2017-05-05T11:40:28.586Z,100848
2017-05-05T11:41:29.217Z,100841
2017-05-05T11:42:27.272Z,100835
2017-05-05T11:43:27.675Z,100842
2017-05-05T11:44:27.753Z,100836
2017-05-05T11:45:27.069Z,100835
2017-05-05T11:46:27.709Z,100833
2017-05-05T11:47:26.604Z,100834
2017-05-05T11:48:27.578Z,100831
2017-05-05T11:49:27.254Z,100841
2017-05-05T11:50:27.952Z,100829
2017-05-05T11:51:28.014Z,100838
2017-05-05T11:52:28.068Z,100837
2017-05-05T11:53:27.550Z,100839
2017-05-05T11:54:28.711Z,100838
2017-05-05T11:55:29.015Z,100832
2017-05-05T11:56:27.880Z,100836
2017-05-05T11:57:28.480Z,100843
2017-05-05T11:58:27.873Z,100839
2017-05-05T11:59:29.501Z,100841
2017-05-05T12:00:30.269Z,100836
2017-05-05T12:01:28.565Z,100839
2017-05-05T12:02:28.922Z,100840
2017-05-05T12:03:28.189Z,100843
2017-05-05T12:04:28.912Z,100843
2017-05-05T12:05:28.831Z,100835
2017-05-05T12:06:37.274Z,100838
2017-05-05T12:07:31.368Z,100843
2017-05-05T12:08:27.883Z,100836
2017-05-05T12:09:28.595Z,100844
2017-05-05T12:10:28.573Z,100843
2017-05-05T12:11:28.529Z,100840
2017-05-05T12:12:29.657Z,100844
2017-05-05T12:13:28.628Z,100845
2017-05-05T12:14:33.313Z,100836
2017-05-05T12:15:31.006Z,100844
2017-05-05T12:16:31.129Z,100841
2017-05-05T12:17:30.490Z,100834
2017-05-05T12:19:35.872Z,100841
2017-05-05T12:20:32.432Z,100841
2017-05-05T12:21:31.766Z,100840
2017-05-05T12:22:34.848Z,100842
2017-05-05T12:23:36.776Z,100840
2017-05-05T12:24:34.728Z,100843
2017-05-05T12:25:32.035Z,100843
2017-05-05T12:26:33.730Z,100841
2017-05-05T12:27:28.661Z,100839
2017-05-05T12:28:30.054Z,100843
2017-05-05T12:29:33.767Z,100841
2017-05-05T12:30:33.146Z,100840